sensor_id;sensor_type;location;lat;lon;timestamp;temperature;humidity
19538;DHT22;9914;51.008;4.300;2022-07-09T00:00:00;19.00;99.90
19538;DHT22;9914;51.008;4.300;2022-07-09T00:02:26;19.00;99.90
19538;DHT22;9914;51.008;4.300;2022-07-09T00:04:51;18.90;99.90
19538;DHT22;9914;51.008;4.300;2022-07-09T00:07:17;18.90;99.90
19538;DHT22;9914;51.008;4.300;2022-07-09T00:09:43;18.80;99.90
19538;DHT22;9914;51.008;4.300;2022-07-09T00:12:08;18.80;99.90
19538;DHT22;9914;51.008;4.300;2022-07-09T00:14:34;18.80;99.90
19538;DHT22;9914;51.008;4.300;2022-07-09T00:17:00;18.70;99.90
19538;DHT22;9914;51.008;4.300;2022-07-09T00:19:25;18.70;99.90
19538;DHT22;9914;51.008;4.300;2022-07-09T00:21:51;18.70;99.90
19538;DHT22;9914;51.008;4.300;2022-07-09T00:24:17;18.80;99.90
19538;DHT22;9914;51.008;4.300;2022-07-09T00:26:42;18.70;99.90
19538;DHT22;9914;51.008;4.300;2022-07-09T00:29:08;18.80;99.90
19538;DHT22;9914;51.008;4.300;2022-07-09T00:31:33;18.70;99.90
19538;DHT22;9914;51.008;4.300;2022-07-09T00:33:59;18.90;99.90
19538;DHT22;9914;51.008;4.300;2022-07-09T00:36:25;18.80;99.90
19538;DHT22;9914;51.008;4.300;2022-07-09T00:38:50;18.70;99.90
19538;DHT22;9914;51.008;4.300;2022-07-09T00:41:16;18.60;99.90
19538;DHT22;9914;51.008;4.300;2022-07-09T00:43:49;18.60;99.90
19538;DHT22;9914;51.008;4.300;2022-07-09T00:46:15;18.60;99.90
19538;DHT22;9914;51.008;4.300;2022-07-09T00:48:41;18.50;99.90
19538;DHT22;9914;51.008;4.300;2022-07-09T00:51:08;18.50;99.90
19538;DHT22;9914;51.008;4.300;2022-07-09T00:53:34;18.50;99.90
19538;DHT22;9914;51.008;4.300;2022-07-09T00:56:00;18.70;99.90
19538;DHT22;9914;51.008;4.300;2022-07-09T00:58:27;18.70;99.90
19538;DHT22;9914;51.008;4.300;2022-07-09T01:00:54;18.50;99.90
19538;DHT22;9914;51.008;4.300;2022-07-09T01:03:20;18.60;99.90
19538;DHT22;9914;51.008;4.300;2022-07-09T01:05:45;18.50;99.90
19538;DHT22;9914;51.008;4.300;2022-07-09T01:08:11;18.60;99.90
19538;DHT22;9914;51.008;4.300;2022-07-09T01:10:37;18.70;99.90
19538;DHT22;9914;51.008;4.300;2022-07-09T01:13:04;18.70;99.90
19538;DHT22;9914;51.008;4.300;2022-07-09T01:15:30;18.70;99.90
19538;DHT22;9914;51.008;4.300;2022-07-09T01:17:56;18.70;99.90
19538;DHT22;9914;51.008;4.300;2022-07-09T01:20:27;18.80;99.90
19538;DHT22;9914;51.008;4.300;2022-07-09T01:22:54;18.80;99.90
19538;DHT22;9914;51.008;4.300;2022-07-09T01:25:36;18.80;99.90
19538;DHT22;9914;51.008;4.300;2022-07-09T01:28:03;18.70;99.90
19538;DHT22;9914;51.008;4.300;2022-07-09T01:30:31;18.70;99.90
19538;DHT22;9914;51.008;4.300;2022-07-09T01:32:57;18.70;99.90
19538;DHT22;9914;51.008;4.300;2022-07-09T01:35:23;18.70;99.90
19538;DHT22;9914;51.008;4.300;2022-07-09T01:37:48;18.70;99.90
19538;DHT22;9914;51.008;4.300;2022-07-09T01:40:14;18.70;99.90
19538;DHT22;9914;51.008;4.300;2022-07-09T01:42:40;18.60;99.90
19538;DHT22;9914;51.008;4.300;2022-07-09T01:45:06;18.60;99.90
19538;DHT22;9914;51.008;4.300;2022-07-09T01:47:32;18.60;99.90
19538;DHT22;9914;51.008;4.300;2022-07-09T01:49:57;18.60;99.90
19538;DHT22;9914;51.008;4.300;2022-07-09T01:52:24;18.60;99.90
19538;DHT22;9914;51.008;4.300;2022-07-09T01:54:49;18.50;99.90
19538;DHT22;9914;51.008;4.300;2022-07-09T01:57:15;18.40;99.90
19538;DHT22;9914;51.008;4.300;2022-07-09T01:59:41;18.40;99.90
19538;DHT22;9914;51.008;4.300;2022-07-09T02:02:06;18.40;99.90
19538;DHT22;9914;51.008;4.300;2022-07-09T02:04:32;18.40;99.90
19538;DHT22;9914;51.008;4.300;2022-07-09T02:06:58;18.50;99.90
19538;DHT22;9914;51.008;4.300;2022-07-09T02:09:23;18.50;99.90
19538;DHT22;9914;51.008;4.300;2022-07-09T02:11:49;18.40;99.90
19538;DHT22;9914;51.008;4.300;2022-07-09T02:14:15;18.40;99.90
19538;DHT22;9914;51.008;4.300;2022-07-09T02:16:40;18.40;99.90
19538;DHT22;9914;51.008;4.300;2022-07-09T02:19:06;18.30;99.90
19538;DHT22;9914;51.008;4.300;2022-07-09T02:21:32;18.40;99.90
19538;DHT22;9914;51.008;4.300;2022-07-09T02:23:58;18.40;99.90
19538;DHT22;9914;51.008;4.300;2022-07-09T02:26:27;18.40;99.90
19538;DHT22;9914;51.008;4.300;2022-07-09T02:28:55;18.40;99.90
19538;DHT22;9914;51.008;4.300;2022-07-09T02:31:21;18.30;99.90
19538;DHT22;9914;51.008;4.300;2022-07-09T02:33:47;18.40;99.90
19538;DHT22;9914;51.008;4.300;2022-07-09T02:36:12;18.40;99.90
19538;DHT22;9914;51.008;4.300;2022-07-09T02:38:38;18.40;99.90
19538;DHT22;9914;51.008;4.300;2022-07-09T02:41:04;18.50;99.90
19538;DHT22;9914;51.008;4.300;2022-07-09T02:43:29;18.50;99.90
19538;DHT22;9914;51.008;4.300;2022-07-09T02:45:55;18.60;99.90
19538;DHT22;9914;51.008;4.300;2022-07-09T02:48:22;18.60;99.90
19538;DHT22;9914;51.008;4.300;2022-07-09T02:50:49;18.50;99.90
19538;DHT22;9914;51.008;4.300;2022-07-09T02:53:15;18.60;99.90
19538;DHT22;9914;51.008;4.300;2022-07-09T02:55:40;18.60;99.90
19538;DHT22;9914;51.008;4.300;2022-07-09T02:58:06;18.60;99.90
19538;DHT22;9914;51.008;4.300;2022-07-09T03:00:32;18.60;99.90
19538;DHT22;9914;51.008;4.300;2022-07-09T03:02:58;18.70;99.90
19538;DHT22;9914;51.008;4.300;2022-07-09T03:05:23;18.70;99.90
19538;DHT22;9914;51.008;4.300;2022-07-09T03:07:49;18.80;99.90
19538;DHT22;9914;51.008;4.300;2022-07-09T03:10:15;18.80;99.90
19538;DHT22;9914;51.008;4.300;2022-07-09T03:12:41;18.70;99.90
19538;DHT22;9914;51.008;4.300;2022-07-09T03:15:10;18.70;99.90
19538;DHT22;9914;51.008;4.300;2022-07-09T03:17:38;18.70;99.90
19538;DHT22;9914;51.008;4.300;2022-07-09T03:20:04;18.70;99.90
19538;DHT22;9914;51.008;4.300;2022-07-09T03:22:30;18.60;99.90
19538;DHT22;9914;51.008;4.300;2022-07-09T03:24:56;18.50;99.90
19538;DHT22;9914;51.008;4.300;2022-07-09T03:27:22;18.50;99.90
19538;DHT22;9914;51.008;4.300;2022-07-09T03:29:47;18.50;99.90
19538;DHT22;9914;51.008;4.300;2022-07-09T03:32:13;18.40;99.90
19538;DHT22;9914;51.008;4.300;2022-07-09T03:34:39;18.50;99.90
19538;DHT22;9914;51.008;4.300;2022-07-09T03:37:05;18.60;99.90
19538;DHT22;9914;51.008;4.300;2022-07-09T03:39:31;18.50;99.90
19538;DHT22;9914;51.008;4.300;2022-07-09T03:41:56;18.50;99.90
19538;DHT22;9914;51.008;4.300;2022-07-09T03:44:22;18.50;99.90
19538;DHT22;9914;51.008;4.300;2022-07-09T03:46:48;18.60;99.90
19538;DHT22;9914;51.008;4.300;2022-07-09T03:49:13;18.60;99.90
19538;DHT22;9914;51.008;4.300;2022-07-09T03:51:39;18.70;99.90
19538;DHT22;9914;51.008;4.300;2022-07-09T03:54:05;18.70;99.90
19538;DHT22;9914;51.008;4.300;2022-07-09T03:56:30;18.70;99.90
19538;DHT22;9914;51.008;4.300;2022-07-09T03:58:56;18.90;99.90
19538;DHT22;9914;51.008;4.300;2022-07-09T04:01:21;18.90;99.90
19538;DHT22;9914;51.008;4.300;2022-07-09T04:03:47;18.70;99.90
19538;DHT22;9914;51.008;4.300;2022-07-09T04:06:12;18.80;99.90
19538;DHT22;9914;51.008;4.300;2022-07-09T04:08:38;18.70;99.90
19538;DHT22;9914;51.008;4.300;2022-07-09T04:11:04;18.60;99.90
19538;DHT22;9914;51.008;4.300;2022-07-09T04:13:29;18.60;99.90
19538;DHT22;9914;51.008;4.300;2022-07-09T04:15:55;18.70;99.90
19538;DHT22;9914;51.008;4.300;2022-07-09T04:18:21;18.70;99.90
19538;DHT22;9914;51.008;4.300;2022-07-09T04:20:46;18.70;99.90
19538;DHT22;9914;51.008;4.300;2022-07-09T04:23:12;18.80;99.90
19538;DHT22;9914;51.008;4.300;2022-07-09T04:25:37;18.70;99.90
19538;DHT22;9914;51.008;4.300;2022-07-09T04:28:03;18.70;99.90
19538;DHT22;9914;51.008;4.300;2022-07-09T04:30:30;18.60;99.90
19538;DHT22;9914;51.008;4.300;2022-07-09T04:32:56;18.70;99.90
19538;DHT22;9914;51.008;4.300;2022-07-09T04:35:22;18.60;99.90
19538;DHT22;9914;51.008;4.300;2022-07-09T04:37:47;18.60;99.90
19538;DHT22;9914;51.008;4.300;2022-07-09T04:40:26;18.60;99.90
19538;DHT22;9914;51.008;4.300;2022-07-09T04:42:51;18.70;99.90
19538;DHT22;9914;51.008;4.300;2022-07-09T04:45:17;18.70;99.90
19538;DHT22;9914;51.008;4.300;2022-07-09T04:47:43;18.80;99.90
19538;DHT22;9914;51.008;4.300;2022-07-09T04:50:09;18.90;99.90
19538;DHT22;9914;51.008;4.300;2022-07-09T04:52:36;19.00;99.90
19538;DHT22;9914;51.008;4.300;2022-07-09T04:55:02;19.10;99.90
19538;DHT22;9914;51.008;4.300;2022-07-09T04:57:28;19.30;99.90
19538;DHT22;9914;51.008;4.300;2022-07-09T05:00:00;19.60;99.90
19538;DHT22;9914;51.008;4.300;2022-07-09T05:02:26;19.80;99.90
19538;DHT22;9914;51.008;4.300;2022-07-09T05:04:52;19.80;99.90
19538;DHT22;9914;51.008;4.300;2022-07-09T05:07:18;19.80;99.90
19538;DHT22;9914;51.008;4.300;2022-07-09T05:09:44;19.90;99.90
19538;DHT22;9914;51.008;4.300;2022-07-09T05:12:09;20.00;99.90
19538;DHT22;9914;51.008;4.300;2022-07-09T05:14:39;20.00;99.90
19538;DHT22;9914;51.008;4.300;2022-07-09T05:17:05;20.00;99.90
19538;DHT22;9914;51.008;4.300;2022-07-09T05:19:32;20.10;99.90
19538;DHT22;9914;51.008;4.300;2022-07-09T05:21:57;20.30;99.90
19538;DHT22;9914;51.008;4.300;2022-07-09T05:24:23;20.30;99.90
19538;DHT22;9914;51.008;4.300;2022-07-09T05:26:49;20.30;99.90
19538;DHT22;9914;51.008;4.300;2022-07-09T05:29:15;20.30;99.90
19538;DHT22;9914;51.008;4.300;2022-07-09T05:31:41;20.20;99.90
19538;DHT22;9914;51.008;4.300;2022-07-09T05:34:06;20.30;99.90
19538;DHT22;9914;51.008;4.300;2022-07-09T05:36:33;20.30;99.90
19538;DHT22;9914;51.008;4.300;2022-07-09T05:38:59;20.30;99.90
19538;DHT22;9914;51.008;4.300;2022-07-09T05:41:26;20.50;99.90
19538;DHT22;9914;51.008;4.300;2022-07-09T05:43:52;20.70;99.90
19538;DHT22;9914;51.008;4.300;2022-07-09T05:46:19;20.90;99.90
19538;DHT22;9914;51.008;4.300;2022-07-09T05:48:46;21.00;99.90
19538;DHT22;9914;51.008;4.300;2022-07-09T05:51:11;20.90;99.90
19538;DHT22;9914;51.008;4.300;2022-07-09T05:53:37;20.90;99.90
19538;DHT22;9914;51.008;4.300;2022-07-09T05:56:04;20.90;99.90
19538;DHT22;9914;51.008;4.300;2022-07-09T05:58:29;21.00;99.90
19538;DHT22;9914;51.008;4.300;2022-07-09T06:00:55;21.00;99.90
19538;DHT22;9914;51.008;4.300;2022-07-09T06:03:21;20.90;99.90
19538;DHT22;9914;51.008;4.300;2022-07-09T06:05:46;20.90;99.90
19538;DHT22;9914;51.008;4.300;2022-07-09T06:08:12;20.90;99.90
19538;DHT22;9914;51.008;4.300;2022-07-09T06:10:37;20.90;99.90
19538;DHT22;9914;51.008;4.300;2022-07-09T06:13:03;21.10;99.90
19538;DHT22;9914;51.008;4.300;2022-07-09T06:15:29;21.20;99.90
19538;DHT22;9914;51.008;4.300;2022-07-09T06:17:54;21.50;99.90
19538;DHT22;9914;51.008;4.300;2022-07-09T06:20:20;21.60;99.90
19538;DHT22;9914;51.008;4.300;2022-07-09T06:22:46;21.80;99.90
19538;DHT22;9914;51.008;4.300;2022-07-09T06:25:12;22.00;99.90
19538;DHT22;9914;51.008;4.300;2022-07-09T06:27:37;22.10;99.90
19538;DHT22;9914;51.008;4.300;2022-07-09T06:30:06;22.20;99.90
19538;DHT22;9914;51.008;4.300;2022-07-09T06:32:32;22.20;99.90
19538;DHT22;9914;51.008;4.300;2022-07-09T06:34:58;22.30;99.90
19538;DHT22;9914;51.008;4.300;2022-07-09T06:37:24;22.20;99.90
19538;DHT22;9914;51.008;4.300;2022-07-09T06:39:49;22.20;99.90
19538;DHT22;9914;51.008;4.300;2022-07-09T06:42:17;22.20;99.90
19538;DHT22;9914;51.008;4.300;2022-07-09T06:44:43;22.30;99.90
19538;DHT22;9914;51.008;4.300;2022-07-09T06:47:10;22.30;99.90
19538;DHT22;9914;51.008;4.300;2022-07-09T06:49:36;22.40;99.90
19538;DHT22;9914;51.008;4.300;2022-07-09T06:52:02;22.70;99.90
19538;DHT22;9914;51.008;4.300;2022-07-09T06:54:28;22.80;99.90
19538;DHT22;9914;51.008;4.300;2022-07-09T06:56:53;23.10;99.90
19538;DHT22;9914;51.008;4.300;2022-07-09T06:59:19;23.20;99.90
19538;DHT22;9914;51.008;4.300;2022-07-09T07:01:47;22.70;99.90
19538;DHT22;9914;51.008;4.300;2022-07-09T07:04:13;23.00;99.90
19538;DHT22;9914;51.008;4.300;2022-07-09T07:06:43;23.10;99.90
19538;DHT22;9914;51.008;4.300;2022-07-09T07:09:09;23.20;99.90
19538;DHT22;9914;51.008;4.300;2022-07-09T07:11:35;23.30;99.90
19538;DHT22;9914;51.008;4.300;2022-07-09T07:14:00;23.40;99.90
19538;DHT22;9914;51.008;4.300;2022-07-09T07:16:27;23.60;99.90
19538;DHT22;9914;51.008;4.300;2022-07-09T07:18:53;23.70;99.90
19538;DHT22;9914;51.008;4.300;2022-07-09T07:21:19;23.40;99.90
19538;DHT22;9914;51.008;4.300;2022-07-09T07:23:44;23.60;99.90
19538;DHT22;9914;51.008;4.300;2022-07-09T07:26:10;23.50;99.90
19538;DHT22;9914;51.008;4.300;2022-07-09T07:28:36;23.60;99.90
19538;DHT22;9914;51.008;4.300;2022-07-09T07:31:01;23.40;99.90
19538;DHT22;9914;51.008;4.300;2022-07-09T07:33:27;23.50;99.90
19538;DHT22;9914;51.008;4.300;2022-07-09T07:35:53;23.60;99.90
19538;DHT22;9914;51.008;4.300;2022-07-09T07:38:18;23.60;99.90
19538;DHT22;9914;51.008;4.300;2022-07-09T07:40:44;23.40;99.90
19538;DHT22;9914;51.008;4.300;2022-07-09T07:43:10;23.30;99.90
19538;DHT22;9914;51.008;4.300;2022-07-09T07:45:39;23.20;99.90
19538;DHT22;9914;51.008;4.300;2022-07-09T07:48:05;22.80;99.90
19538;DHT22;9914;51.008;4.300;2022-07-09T07:50:30;23.00;99.90
19538;DHT22;9914;51.008;4.300;2022-07-09T07:52:58;23.30;99.90
19538;DHT22;9914;51.008;4.300;2022-07-09T07:55:23;23.70;99.90
19538;DHT22;9914;51.008;4.300;2022-07-09T07:57:49;23.70;99.90
19538;DHT22;9914;51.008;4.300;2022-07-09T08:00:15;23.70;99.90
19538;DHT22;9914;51.008;4.300;2022-07-09T08:02:41;23.50;99.90
19538;DHT22;9914;51.008;4.300;2022-07-09T08:05:07;23.30;99.90
19538;DHT22;9914;51.008;4.300;2022-07-09T08:07:32;22.80;99.90
19538;DHT22;9914;51.008;4.300;2022-07-09T08:09:58;22.90;99.90
19538;DHT22;9914;51.008;4.300;2022-07-09T08:12:24;22.90;99.90
19538;DHT22;9914;51.008;4.300;2022-07-09T08:14:50;23.00;99.90
19538;DHT22;9914;51.008;4.300;2022-07-09T08:17:15;22.60;99.90
19538;DHT22;9914;51.008;4.300;2022-07-09T08:19:41;22.90;99.90
19538;DHT22;9914;51.008;4.300;2022-07-09T08:22:07;23.10;99.90
19538;DHT22;9914;51.008;4.300;2022-07-09T08:24:32;22.80;99.90
19538;DHT22;9914;51.008;4.300;2022-07-09T08:26:58;23.30;99.90
19538;DHT22;9914;51.008;4.300;2022-07-09T08:29:24;22.90;99.90
19538;DHT22;9914;51.008;4.300;2022-07-09T08:31:50;22.50;99.90
19538;DHT22;9914;51.008;4.300;2022-07-09T08:34:17;22.30;99.90
19538;DHT22;9914;51.008;4.300;2022-07-09T08:36:43;22.80;99.90
19538;DHT22;9914;51.008;4.300;2022-07-09T08:39:08;23.30;99.90
19538;DHT22;9914;51.008;4.300;2022-07-09T08:41:34;23.60;99.90
19538;DHT22;9914;51.008;4.300;2022-07-09T08:44:03;23.70;99.90
19538;DHT22;9914;51.008;4.300;2022-07-09T08:46:31;23.90;99.90
19538;DHT22;9914;51.008;4.300;2022-07-09T08:48:57;24.00;99.90
19538;DHT22;9914;51.008;4.300;2022-07-09T08:51:24;24.20;99.90
19538;DHT22;9914;51.008;4.300;2022-07-09T08:53:49;24.50;99.90
19538;DHT22;9914;51.008;4.300;2022-07-09T08:56:15;24.40;99.90
19538;DHT22;9914;51.008;4.300;2022-07-09T08:58:41;24.70;99.90
19538;DHT22;9914;51.008;4.300;2022-07-09T09:01:07;24.70;99.90
19538;DHT22;9914;51.008;4.300;2022-07-09T09:03:33;24.50;99.90
19538;DHT22;9914;51.008;4.300;2022-07-09T09:06:08;24.70;99.90
19538;DHT22;9914;51.008;4.300;2022-07-09T09:08:41;24.70;99.90
19538;DHT22;9914;51.008;4.300;2022-07-09T09:11:19;24.90;99.90
19538;DHT22;9914;51.008;4.300;2022-07-09T09:13:47;24.90;99.90
19538;DHT22;9914;51.008;4.300;2022-07-09T09:16:14;25.00;99.90
19538;DHT22;9914;51.008;4.300;2022-07-09T09:18:41;25.20;99.90
19538;DHT22;9914;51.008;4.300;2022-07-09T09:21:08;25.00;99.90
19538;DHT22;9914;51.008;4.300;2022-07-09T09:23:50;25.00;99.90
19538;DHT22;9914;51.008;4.300;2022-07-09T09:26:19;24.70;99.90
19538;DHT22;9914;51.008;4.300;2022-07-09T09:29:05;25.10;99.90
19538;DHT22;9914;51.008;4.300;2022-07-09T09:31:33;25.20;99.90
19538;DHT22;9914;51.008;4.300;2022-07-09T09:36:40;25.00;99.90
19538;DHT22;9914;51.008;4.300;2022-07-09T09:39:24;24.80;99.90
19538;DHT22;9914;51.008;4.300;2022-07-09T09:41:55;23.90;99.90
19538;DHT22;9914;51.008;4.300;2022-07-09T09:44:26;23.90;99.90
19538;DHT22;9914;51.008;4.300;2022-07-09T09:46:54;24.60;99.90
19538;DHT22;9914;51.008;4.300;2022-07-09T09:49:20;25.10;99.90
19538;DHT22;9914;51.008;4.300;2022-07-09T09:54:37;23.90;99.90
19538;DHT22;9914;51.008;4.300;2022-07-09T09:57:10;23.60;99.90
19538;DHT22;9914;51.008;4.300;2022-07-09T09:59:40;24.10;99.90
19538;DHT22;9914;51.008;4.300;2022-07-09T10:02:07;23.80;99.90
19538;DHT22;9914;51.008;4.300;2022-07-09T10:04:36;24.00;99.90
19538;DHT22;9914;51.008;4.300;2022-07-09T10:07:03;24.20;99.90
19538;DHT22;9914;51.008;4.300;2022-07-09T10:09:29;24.30;99.90
19538;DHT22;9914;51.008;4.300;2022-07-09T10:11:55;24.60;99.90
19538;DHT22;9914;51.008;4.300;2022-07-09T10:16:52;23.50;99.90
19538;DHT22;9914;51.008;4.300;2022-07-09T10:19:29;23.20;99.90
19538;DHT22;9914;51.008;4.300;2022-07-09T10:21:56;23.90;99.90
19538;DHT22;9914;51.008;4.300;2022-07-09T10:24:36;23.90;99.90
19538;DHT22;9914;51.008;4.300;2022-07-09T10:27:06;24.20;99.90
19538;DHT22;9914;51.008;4.300;2022-07-09T10:29:33;23.60;99.90
19538;DHT22;9914;51.008;4.300;2022-07-09T10:31:58;22.60;99.90
19538;DHT22;9914;51.008;4.300;2022-07-09T10:37:00;23.10;99.90
19538;DHT22;9914;51.008;4.300;2022-07-09T10:39:26;23.90;99.90
19538;DHT22;9914;51.008;4.300;2022-07-09T10:42:06;24.50;99.90
19538;DHT22;9914;51.008;4.300;2022-07-09T10:44:37;23.80;99.90
19538;DHT22;9914;51.008;4.300;2022-07-09T10:47:04;24.10;99.90
19538;DHT22;9914;51.008;4.300;2022-07-09T10:49:33;24.00;99.90
19538;DHT22;9914;51.008;4.300;2022-07-09T10:51:59;24.10;99.90
19538;DHT22;9914;51.008;4.300;2022-07-09T10:54:25;24.80;99.90
19538;DHT22;9914;51.008;4.300;2022-07-09T10:56:54;24.10;99.90
19538;DHT22;9914;51.008;4.300;2022-07-09T10:59:21;23.70;99.90
19538;DHT22;9914;51.008;4.300;2022-07-09T11:01:47;24.40;99.90
19538;DHT22;9914;51.008;4.300;2022-07-09T11:04:30;23.50;99.90
19538;DHT22;9914;51.008;4.300;2022-07-09T11:06:57;23.20;99.90
19538;DHT22;9914;51.008;4.300;2022-07-09T11:09:23;23.30;99.90
19538;DHT22;9914;51.008;4.300;2022-07-09T11:11:50;23.60;99.90
19538;DHT22;9914;51.008;4.300;2022-07-09T11:14:16;23.50;99.90
19538;DHT22;9914;51.008;4.300;2022-07-09T11:16:42;23.80;99.90
19538;DHT22;9914;51.008;4.300;2022-07-09T11:19:18;23.80;99.90
19538;DHT22;9914;51.008;4.300;2022-07-09T11:21:45;24.30;99.90
19538;DHT22;9914;51.008;4.300;2022-07-09T11:24:15;24.10;99.90
19538;DHT22;9914;51.008;4.300;2022-07-09T11:26:41;24.20;99.90
19538;DHT22;9914;51.008;4.300;2022-07-09T11:29:08;23.80;99.90
19538;DHT22;9914;51.008;4.300;2022-07-09T11:31:35;23.40;99.90
19538;DHT22;9914;51.008;4.300;2022-07-09T11:34:01;23.50;99.90
19538;DHT22;9914;51.008;4.300;2022-07-09T11:36:41;23.40;99.90
19538;DHT22;9914;51.008;4.300;2022-07-09T11:39:07;24.10;99.90
19538;DHT22;9914;51.008;4.300;2022-07-09T11:41:45;23.50;99.90
19538;DHT22;9914;51.008;4.300;2022-07-09T11:44:22;23.60;99.90
19538;DHT22;9914;51.008;4.300;2022-07-09T11:49:43;23.90;99.90
19538;DHT22;9914;51.008;4.300;2022-07-09T11:52:22;23.00;99.90
19538;DHT22;9914;51.008;4.300;2022-07-09T11:57:24;23.60;99.90
19538;DHT22;9914;51.008;4.300;2022-07-09T11:59:50;23.70;99.90
19538;DHT22;9914;51.008;4.300;2022-07-09T12:02:42;23.50;99.90
19538;DHT22;9914;51.008;4.300;2022-07-09T12:05:09;23.00;99.90
19538;DHT22;9914;51.008;4.300;2022-07-09T12:07:35;23.00;99.90
19538;DHT22;9914;51.008;4.300;2022-07-09T12:10:08;22.80;99.90
19538;DHT22;9914;51.008;4.300;2022-07-09T12:12:35;23.00;99.90
19538;DHT22;9914;51.008;4.300;2022-07-09T12:15:03;23.50;99.90
19538;DHT22;9914;51.008;4.300;2022-07-09T12:17:31;23.30;99.90
19538;DHT22;9914;51.008;4.300;2022-07-09T12:19:58;23.80;99.90
19538;DHT22;9914;51.008;4.300;2022-07-09T12:22:24;24.10;99.90
19538;DHT22;9914;51.008;4.300;2022-07-09T12:24:54;23.80;99.90
19538;DHT22;9914;51.008;4.300;2022-07-09T12:27:20;23.70;99.90
19538;DHT22;9914;51.008;4.300;2022-07-09T12:29:46;23.60;99.90
19538;DHT22;9914;51.008;4.300;2022-07-09T12:32:13;23.80;99.90
19538;DHT22;9914;51.008;4.300;2022-07-09T12:34:39;24.10;99.90
19538;DHT22;9914;51.008;4.300;2022-07-09T12:37:05;24.20;99.90
19538;DHT22;9914;51.008;4.300;2022-07-09T12:39:31;23.60;99.90
19538;DHT22;9914;51.008;4.300;2022-07-09T12:41:57;23.30;99.90
19538;DHT22;9914;51.008;4.300;2022-07-09T12:44:24;23.30;99.90
19538;DHT22;9914;51.008;4.300;2022-07-09T12:46:50;23.40;99.90
19538;DHT22;9914;51.008;4.300;2022-07-09T12:49:16;23.50;99.90
19538;DHT22;9914;51.008;4.300;2022-07-09T12:51:42;23.90;99.90
19538;DHT22;9914;51.008;4.300;2022-07-09T12:54:07;23.60;99.90
19538;DHT22;9914;51.008;4.300;2022-07-09T12:56:33;23.30;99.90
19538;DHT22;9914;51.008;4.300;2022-07-09T12:58:59;23.40;99.90
19538;DHT22;9914;51.008;4.300;2022-07-09T13:01:24;23.80;99.90
19538;DHT22;9914;51.008;4.300;2022-07-09T13:03:50;23.70;99.90
19538;DHT22;9914;51.008;4.300;2022-07-09T13:06:16;23.60;99.90
19538;DHT22;9914;51.008;4.300;2022-07-09T13:08:57;23.30;99.90
19538;DHT22;9914;51.008;4.300;2022-07-09T13:11:23;22.90;99.90
19538;DHT22;9914;51.008;4.300;2022-07-09T13:13:49;23.80;99.90
19538;DHT22;9914;51.008;4.300;2022-07-09T13:16:15;24.00;99.90
19538;DHT22;9914;51.008;4.300;2022-07-09T13:18:40;23.90;99.90
19538;DHT22;9914;51.008;4.300;2022-07-09T13:21:06;23.00;99.90
19538;DHT22;9914;51.008;4.300;2022-07-09T13:23:32;22.80;99.90
19538;DHT22;9914;51.008;4.300;2022-07-09T13:25:58;22.50;99.90
19538;DHT22;9914;51.008;4.300;2022-07-09T13:28:24;22.90;99.90
19538;DHT22;9914;51.008;4.300;2022-07-09T13:30:50;23.40;99.90
19538;DHT22;9914;51.008;4.300;2022-07-09T13:33:15;23.00;99.90
19538;DHT22;9914;51.008;4.300;2022-07-09T13:35:42;22.40;99.90
19538;DHT22;9914;51.008;4.300;2022-07-09T13:38:07;22.20;99.90
19538;DHT22;9914;51.008;4.300;2022-07-09T13:40:33;22.80;99.90
19538;DHT22;9914;51.008;4.300;2022-07-09T13:42:59;23.20;99.90
19538;DHT22;9914;51.008;4.300;2022-07-09T13:45:25;22.80;99.90
19538;DHT22;9914;51.008;4.300;2022-07-09T13:47:52;22.90;99.90
19538;DHT22;9914;51.008;4.300;2022-07-09T13:50:18;23.60;99.90
19538;DHT22;9914;51.008;4.300;2022-07-09T13:52:44;23.70;99.90
19538;DHT22;9914;51.008;4.300;2022-07-09T13:55:09;22.80;99.90
19538;DHT22;9914;51.008;4.300;2022-07-09T13:57:35;22.50;99.90
19538;DHT22;9914;51.008;4.300;2022-07-09T14:00:01;22.90;99.90
19538;DHT22;9914;51.008;4.300;2022-07-09T14:02:27;23.40;99.90
19538;DHT22;9914;51.008;4.300;2022-07-09T14:04:55;22.80;99.90
19538;DHT22;9914;51.008;4.300;2022-07-09T14:07:22;22.90;99.90
19538;DHT22;9914;51.008;4.300;2022-07-09T14:09:48;22.50;99.90
19538;DHT22;9914;51.008;4.300;2022-07-09T14:12:13;22.30;99.90
19538;DHT22;9914;51.008;4.300;2022-07-09T14:14:39;22.80;99.90
19538;DHT22;9914;51.008;4.300;2022-07-09T14:17:05;22.90;99.90
19538;DHT22;9914;51.008;4.300;2022-07-09T14:19:30;23.20;99.90
19538;DHT22;9914;51.008;4.300;2022-07-09T14:21:56;23.50;99.90
19538;DHT22;9914;51.008;4.300;2022-07-09T14:24:22;23.10;99.90
19538;DHT22;9914;51.008;4.300;2022-07-09T14:26:47;23.30;99.90
19538;DHT22;9914;51.008;4.300;2022-07-09T14:29:13;23.70;99.90
19538;DHT22;9914;51.008;4.300;2022-07-09T14:31:39;23.90;99.90
19538;DHT22;9914;51.008;4.300;2022-07-09T14:34:05;24.20;99.90
19538;DHT22;9914;51.008;4.300;2022-07-09T14:36:31;24.00;99.90
19538;DHT22;9914;51.008;4.300;2022-07-09T14:38:56;24.10;99.90
19538;DHT22;9914;51.008;4.300;2022-07-09T14:41:22;24.50;99.90
19538;DHT22;9914;51.008;4.300;2022-07-09T14:43:48;24.50;99.90
19538;DHT22;9914;51.008;4.300;2022-07-09T14:46:13;24.00;99.90
19538;DHT22;9914;51.008;4.300;2022-07-09T14:48:39;23.60;99.90
19538;DHT22;9914;51.008;4.300;2022-07-09T14:51:08;24.00;99.90
19538;DHT22;9914;51.008;4.300;2022-07-09T14:53:34;23.70;99.90
19538;DHT22;9914;51.008;4.300;2022-07-09T14:55:59;23.60;99.90
19538;DHT22;9914;51.008;4.300;2022-07-09T14:58:26;22.90;99.90
19538;DHT22;9914;51.008;4.300;2022-07-09T15:00:52;22.40;99.90
19538;DHT22;9914;51.008;4.300;2022-07-09T15:03:17;22.60;99.90
19538;DHT22;9914;51.008;4.300;2022-07-09T15:05:43;23.10;99.90
19538;DHT22;9914;51.008;4.300;2022-07-09T15:08:09;23.30;99.90
19538;DHT22;9914;51.008;4.300;2022-07-09T15:10:35;24.30;99.90
19538;DHT22;9914;51.008;4.300;2022-07-09T15:13:02;25.20;99.90
19538;DHT22;9914;51.008;4.300;2022-07-09T15:15:28;26.10;99.90
19538;DHT22;9914;51.008;4.300;2022-07-09T15:17:53;26.50;99.90
19538;DHT22;9914;51.008;4.300;2022-07-09T15:20:20;26.80;99.90
19538;DHT22;9914;51.008;4.300;2022-07-09T15:22:45;27.40;99.90
19538;DHT22;9914;51.008;4.300;2022-07-09T15:25:11;27.10;99.90
19538;DHT22;9914;51.008;4.300;2022-07-09T15:27:37;27.30;99.90
19538;DHT22;9914;51.008;4.300;2022-07-09T15:30:03;27.00;99.90
19538;DHT22;9914;51.008;4.300;2022-07-09T15:32:29;26.80;99.90
19538;DHT22;9914;51.008;4.300;2022-07-09T15:34:55;25.90;99.90
19538;DHT22;9914;51.008;4.300;2022-07-09T15:37:21;25.20;99.90
19538;DHT22;9914;51.008;4.300;2022-07-09T15:39:47;25.40;99.90
19538;DHT22;9914;51.008;4.300;2022-07-09T15:42:13;24.70;99.90
19538;DHT22;9914;51.008;4.300;2022-07-09T15:44:38;24.70;99.90
19538;DHT22;9914;51.008;4.300;2022-07-09T15:47:04;24.60;99.90
19538;DHT22;9914;51.008;4.300;2022-07-09T15:49:30;24.10;99.90
19538;DHT22;9914;51.008;4.300;2022-07-09T15:51:59;25.60;99.90
19538;DHT22;9914;51.008;4.300;2022-07-09T15:54:24;27.30;99.90
19538;DHT22;9914;51.008;4.300;2022-07-09T15:56:50;26.90;99.90